createdAt,value
2023-04-04T00:00:19.548Z,2.10
2023-04-04T00:02:46.844Z,2.10
2023-04-04T00:05:13.544Z,2.00
2023-04-04T00:07:40.186Z,2.00
2023-04-04T00:10:07.430Z,2.00
2023-04-04T00:12:34.335Z,1.90
2023-04-04T00:15:01.448Z,1.90
2023-04-04T00:17:28.213Z,1.90
2023-04-04T00:19:54.869Z,1.90
2023-04-04T00:22:21.499Z,1.80
2023-04-04T00:24:48.968Z,1.80
2023-04-04T00:27:16.113Z,1.80
2023-04-04T00:29:43.206Z,1.80
2023-04-04T00:32:09.946Z,1.80
2023-04-04T00:34:36.707Z,1.80
2023-04-04T00:37:03.382Z,1.80
2023-04-04T00:39:30.061Z,1.70
2023-04-04T00:41:57.181Z,1.70
2023-04-04T00:44:23.982Z,1.70
2023-04-04T00:46:52.401Z,1.70
2023-04-04T00:49:19.165Z,1.70
2023-04-04T00:51:46.097Z,1.70
2023-04-04T00:54:12.932Z,1.60
2023-04-04T00:56:40.563Z,1.60
2023-04-04T00:59:08.558Z,1.60
2023-04-04T01:01:36.881Z,1.60
2023-04-04T01:04:05.678Z,1.50
2023-04-04T01:06:32.805Z,1.50
2023-04-04T01:09:00.041Z,1.50
2023-04-04T01:11:28.264Z,1.50
2023-04-04T01:13:55.849Z,1.50
2023-04-04T01:16:24.097Z,1.40
2023-04-04T01:18:52.954Z,1.40
2023-04-04T01:21:21.826Z,1.40
2023-04-04T01:24:01.175Z,1.40
2023-04-04T01:26:38.049Z,1.40
2023-04-04T01:29:05.117Z,1.40
2023-04-04T01:31:40.544Z,1.30
2023-04-04T01:34:45.425Z,1.30
2023-04-04T01:37:23.120Z,1.30
2023-04-04T01:39:56.279Z,1.30
2023-04-04T01:42:24.254Z,1.30
2023-04-04T01:44:57.072Z,1.20
2023-04-04T01:47:29.320Z,1.20
2023-04-04T01:49:56.012Z,1.20
2023-04-04T01:52:23.404Z,1.20
2023-04-04T01:54:50.646Z,1.10
2023-04-04T01:57:17.617Z,1.10
2023-04-04T01:59:44.513Z,1.20
2023-04-04T02:02:11.319Z,1.10
2023-04-04T02:04:38.767Z,1.20
2023-04-04T02:07:06.405Z,1.20
2023-04-04T02:09:33.512Z,1.10
2023-04-04T02:12:00.889Z,1.10
2023-04-04T02:14:27.565Z,1.10
2023-04-04T02:16:54.634Z,1.10
2023-04-04T02:19:21.341Z,1.00
2023-04-04T02:21:48.167Z,1.00
2023-04-04T02:24:14.903Z,1.00
2023-04-04T02:26:41.804Z,1.00
2023-04-04T02:29:08.500Z,1.00
2023-04-04T02:31:35.452Z,1.00
2023-04-04T02:34:02.199Z,1.00
2023-04-04T02:36:28.942Z,0.90
2023-04-04T02:38:56.969Z,0.90
2023-04-04T02:41:26.195Z,0.90
2023-04-04T02:43:52.958Z,0.90
2023-04-04T02:46:21.954Z,0.90
2023-04-04T02:48:54.760Z,0.90
2023-04-04T02:51:22.272Z,0.80
2023-04-04T02:53:49.123Z,0.80
2023-04-04T02:56:23.992Z,0.80
2023-04-04T02:58:51.014Z,0.80
2023-04-04T03:01:18.023Z,0.70
2023-04-04T03:03:45.051Z,0.70
2023-04-04T03:06:12.539Z,0.70
2023-04-04T03:08:39.329Z,0.70
2023-04-04T03:11:06.678Z,0.60
2023-04-04T03:13:33.561Z,0.60
2023-04-04T03:16:04.668Z,0.60
2023-04-04T03:18:41.708Z,0.60
2023-04-04T03:21:08.382Z,0.50
2023-04-04T03:23:35.536Z,0.50
2023-04-04T03:26:02.310Z,0.50
2023-04-04T03:28:29.611Z,0.50
2023-04-04T03:30:56.667Z,0.50
2023-04-04T03:33:23.658Z,0.50
2023-04-04T03:35:50.489Z,0.50
2023-04-04T03:38:17.512Z,0.50
2023-04-04T03:40:44.512Z,0.40
2023-04-04T03:43:12.759Z,0.40
2023-04-04T03:45:40.828Z,0.40
2023-04-04T03:48:10.137Z,0.40
2023-04-04T03:50:37.818Z,0.30
2023-04-04T03:53:04.589Z,0.40
2023-04-04T03:55:31.292Z,0.30
2023-04-04T03:57:59.632Z,0.30
2023-04-04T04:00:26.991Z,0.30
2023-04-04T04:02:53.836Z,0.30
2023-04-04T04:05:20.627Z,0.30
2023-04-04T04:07:47.281Z,0.30
2023-04-04T04:10:16.908Z,0.30
2023-04-04T04:12:43.577Z,0.30
2023-04-04T04:15:10.549Z,0.20
2023-04-04T04:17:40.591Z,0.20
2023-04-04T04:20:09.542Z,0.20
2023-04-04T04:22:49.621Z,0.20
2023-04-04T04:25:17.685Z,0.20
2023-04-04T04:27:57.862Z,0.20
2023-04-04T04:30:26.392Z,0.10
2023-04-04T04:32:53.587Z,0.10
2023-04-04T04:35:26.029Z,0.10
2023-04-04T04:37:55.719Z,0.10
2023-04-04T04:40:22.601Z,0.10
2023-04-04T04:42:58.650Z,0.10
2023-04-04T04:45:26.160Z,0.10
2023-04-04T04:48:04.236Z,0.10
2023-04-04T04:50:33.306Z,0.10
2023-04-04T04:53:00.159Z,0.10
2023-04-04T04:55:27.632Z,0.00
2023-04-04T04:58:05.525Z,0.10
2023-04-04T05:00:32.899Z,0.10
2023-04-04T05:03:02.861Z,0.10
2023-04-04T05:05:36.504Z,0.10
2023-04-04T05:08:07.489Z,0.10
2023-04-04T05:10:38.274Z,0.10
2023-04-04T05:13:06.168Z,0.10
2023-04-04T05:15:40.427Z,0.00
2023-04-04T05:18:07.811Z,0.00
2023-04-04T05:20:35.615Z,0.00
2023-04-04T05:23:04.697Z,0.10
2023-04-04T05:25:41.076Z,0.10
2023-04-04T05:28:08.960Z,0.10
2023-04-04T05:30:37.504Z,0.00
2023-04-04T05:33:15.660Z,0.10
2023-04-04T05:35:48.599Z,0.10
2023-04-04T05:38:16.848Z,0.10
2023-04-04T05:40:45.883Z,0.10
2023-04-04T05:43:14.575Z,0.10
2023-04-04T05:45:56.942Z,0.20
2023-04-04T05:48:25.710Z,0.20
2023-04-04T05:50:53.537Z,0.20
2023-04-04T05:53:31.041Z,0.20
2023-04-04T05:55:59.286Z,0.20
2023-04-04T05:58:30.335Z,0.20
2023-04-04T06:00:58.825Z,0.30
2023-04-04T06:03:25.765Z,0.30
2023-04-04T06:05:53.268Z,0.40
2023-04-04T06:08:20.758Z,0.40
2023-04-04T06:10:47.463Z,0.40
2023-04-04T06:13:14.176Z,0.40
2023-04-04T06:15:44.118Z,0.50
2023-04-04T06:18:11.729Z,0.50
2023-04-04T06:20:38.687Z,0.50
2023-04-04T06:23:05.630Z,0.50
2023-04-04T06:25:36.112Z,0.60
2023-04-04T06:28:03.575Z,0.60
2023-04-04T06:30:31.047Z,0.70
2023-04-04T06:32:58.847Z,0.70
2023-04-04T06:35:28.282Z,0.70
2023-04-04T06:37:59.953Z,0.80
2023-04-04T06:40:27.671Z,0.80
2023-04-04T06:42:58.102Z,0.80
2023-04-04T06:45:33.387Z,0.90
2023-04-04T06:48:00.201Z,0.90
2023-04-04T06:50:30.061Z,1.00
2023-04-04T06:52:57.321Z,1.00
2023-04-04T06:55:24.181Z,1.10
2023-04-04T06:57:51.454Z,1.10
2023-04-04T07:00:18.490Z,1.10
2023-04-04T07:02:45.529Z,1.10
2023-04-04T07:05:14.221Z,1.20
2023-04-04T07:07:41.234Z,1.10
2023-04-04T07:10:08.313Z,1.20
2023-04-04T07:12:34.954Z,1.20
2023-04-04T07:15:01.891Z,1.20
2023-04-04T07:17:28.657Z,1.20
2023-04-04T07:19:55.531Z,1.20
2023-04-04T07:22:22.208Z,1.30
2023-04-04T07:24:48.936Z,1.30
2023-04-04T07:27:15.916Z,1.30
2023-04-04T07:29:43.038Z,1.30
2023-04-04T07:32:09.755Z,1.40
2023-04-04T07:34:36.922Z,1.40
2023-04-04T07:37:03.629Z,1.40
2023-04-04T07:39:31.216Z,1.40
2023-04-04T07:41:57.890Z,1.40
2023-04-04T07:44:24.550Z,1.50
2023-04-04T07:47:02.432Z,1.50
2023-04-04T07:49:33.468Z,1.50
2023-04-04T07:52:00.121Z,1.60
2023-04-04T07:54:27.309Z,1.60
2023-04-04T07:56:53.963Z,1.60
2023-04-04T07:59:20.667Z,1.70
2023-04-04T08:01:47.342Z,1.70
2023-04-04T08:04:14.019Z,1.80
2023-04-04T08:06:40.661Z,1.80
2023-04-04T08:09:07.855Z,1.80
2023-04-04T08:11:34.719Z,1.90
2023-04-04T08:14:01.347Z,1.90
2023-04-04T08:16:28.029Z,1.90
2023-04-04T08:18:54.704Z,1.90
2023-04-04T08:21:21.361Z,2.00
2023-04-04T08:23:48.061Z,2.00
2023-04-04T08:26:15.446Z,2.10
2023-04-04T08:28:42.123Z,2.10
2023-04-04T08:31:10.305Z,2.10
2023-04-04T08:33:47.452Z,2.20
2023-04-04T08:36:14.919Z,2.20
2023-04-04T08:38:41.677Z,2.30
2023-04-04T08:41:09.573Z,2.30
2023-04-04T08:43:38.353Z,2.40
2023-04-04T08:46:06.437Z,2.40
2023-04-04T08:48:34.199Z,2.40
2023-04-04T08:51:03.345Z,2.40
2023-04-04T08:53:30.669Z,2.50
2023-04-04T08:56:00.152Z,2.50
2023-04-04T08:58:27.417Z,2.50
2023-04-04T09:00:55.059Z,2.50
2023-04-04T09:03:27.393Z,2.50
2023-04-04T09:05:55.456Z,2.50
2023-04-04T09:08:24.717Z,2.50
2023-04-04T09:10:52.558Z,2.50
2023-04-04T09:13:19.441Z,2.50
2023-04-04T09:15:51.956Z,2.60
2023-04-04T09:18:19.034Z,2.60
2023-04-04T09:20:49.260Z,2.70
2023-04-04T09:23:18.515Z,2.70
2023-04-04T09:28:24.012Z,2.70
2023-04-04T09:30:51.791Z,2.80
2023-04-04T09:33:21.502Z,2.80
2023-04-04T09:35:56.124Z,2.90
2023-04-04T09:38:28.394Z,3.00
2023-04-04T09:40:55.975Z,3.00
2023-04-04T09:43:26.116Z,3.00
2023-04-04T09:45:55.121Z,3.00
2023-04-04T09:48:32.872Z,3.00
2023-04-04T09:51:00.305Z,3.10
2023-04-04T09:53:28.069Z,3.10
2023-04-04T09:55:56.414Z,3.10
2023-04-04T09:58:28.595Z,3.10
2023-04-04T10:01:03.171Z,3.20
2023-04-04T10:03:31.030Z,3.30
2023-04-04T10:06:07.258Z,3.40
2023-04-04T10:08:35.408Z,3.40
2023-04-04T10:11:10.429Z,3.40
2023-04-04T10:13:44.415Z,3.40
2023-04-04T10:16:11.869Z,3.50
2023-04-04T10:18:39.592Z,3.50
2023-04-04T10:23:41.264Z,3.60
2023-04-04T10:26:07.951Z,3.60
2023-04-04T10:28:34.765Z,3.60
2023-04-04T10:31:24.897Z,3.70
2023-04-04T10:34:19.213Z,3.70
2023-04-04T10:36:48.973Z,3.70
2023-04-04T10:39:29.433Z,3.80
2023-04-04T10:41:56.822Z,3.80
2023-04-04T10:44:33.730Z,3.90
2023-04-04T10:47:17.393Z,3.90
2023-04-04T10:49:45.710Z,3.90
2023-04-04T10:52:18.799Z,3.90
2023-04-04T10:54:48.278Z,3.90
2023-04-04T10:57:15.333Z,3.90
2023-04-04T11:00:10.361Z,4.00
2023-04-04T11:02:52.330Z,4.00
2023-04-04T11:05:34.527Z,4.10
2023-04-04T11:08:08.660Z,4.10
2023-04-04T11:10:42.235Z,4.10
2023-04-04T11:13:13.719Z,4.10
2023-04-04T11:15:52.586Z,4.20
2023-04-04T11:18:45.111Z,4.20
2023-04-04T11:21:20.349Z,4.20
2023-04-04T11:23:59.398Z,4.20
2023-04-04T11:26:28.893Z,4.20
2023-04-04T11:29:07.938Z,4.20
2023-04-04T11:31:40.304Z,4.30
2023-04-04T11:34:12.274Z,4.30
2023-04-04T11:36:39.468Z,4.30
2023-04-04T11:39:15.589Z,4.30
2023-04-04T11:41:57.551Z,4.30
2023-04-04T11:44:31.313Z,4.40
2023-04-04T11:47:05.421Z,4.40
2023-04-04T11:49:37.914Z,4.50
2023-04-04T11:52:09.936Z,4.50
2023-04-04T11:54:38.690Z,4.50
2023-04-04T11:57:07.436Z,4.50
2023-04-04T11:59:39.160Z,4.50
2023-04-04T12:02:06.145Z,4.50
2023-04-04T12:04:35.849Z,4.60
2023-04-04T12:07:07.032Z,4.60
2023-04-04T12:09:34.424Z,4.70
2023-04-04T12:12:01.128Z,4.70
2023-04-04T12:14:27.866Z,4.80
2023-04-04T12:16:57.410Z,4.90
2023-04-04T12:19:25.035Z,4.90
2023-04-04T12:21:52.815Z,4.90
2023-04-04T12:24:20.063Z,4.80
2023-04-04T12:26:49.617Z,4.80
2023-04-04T12:29:18.293Z,4.90
2023-04-04T12:31:46.654Z,4.90
2023-04-04T12:34:23.987Z,4.90
2023-04-04T12:36:56.011Z,4.80
2023-04-04T12:39:25.490Z,4.90
2023-04-04T12:42:01.214Z,4.90
2023-04-04T12:44:34.681Z,5.00
2023-04-04T12:47:04.702Z,5.00
2023-04-04T12:49:32.855Z,5.10
2023-04-04T12:52:04.384Z,5.10
2023-04-04T12:54:33.194Z,5.10
2023-04-04T12:57:04.099Z,5.20
2023-04-04T12:59:32.790Z,5.20
2023-04-04T13:02:02.570Z,5.20
2023-04-04T13:04:29.521Z,5.20
2023-04-04T13:06:56.282Z,5.30
2023-04-04T13:09:23.707Z,5.40
2023-04-04T13:12:05.432Z,5.40
2023-04-04T13:15:01.069Z,5.40
2023-04-04T13:17:44.819Z,5.50
2023-04-04T13:20:13.546Z,5.50
2023-04-04T13:22:41.774Z,5.50
2023-04-04T13:25:10.172Z,5.60
2023-04-04T13:27:37.925Z,5.60
2023-04-04T13:30:06.525Z,5.60
2023-04-04T13:32:34.011Z,5.70
2023-04-04T13:35:00.877Z,5.70
2023-04-04T13:37:28.042Z,5.70
2023-04-04T13:39:54.702Z,5.70
2023-04-04T13:42:23.253Z,5.80
2023-04-04T13:44:49.920Z,5.80
2023-04-04T13:47:16.891Z,5.90
2023-04-04T13:49:43.606Z,5.90
2023-04-04T13:52:10.542Z,5.90
2023-04-04T13:54:37.237Z,5.90
2023-04-04T13:57:03.894Z,6.00
2023-04-04T13:59:30.708Z,6.00
2023-04-04T14:01:57.493Z,6.00
2023-04-04T14:04:24.483Z,6.00
2023-04-04T14:06:51.426Z,6.10
2023-04-04T14:09:18.521Z,6.10
2023-04-04T14:11:46.413Z,6.10
2023-04-04T14:14:13.141Z,6.10
2023-04-04T14:16:39.837Z,6.20
2023-04-04T14:19:07.014Z,6.20
2023-04-04T14:21:33.728Z,6.20
2023-04-04T14:24:00.684Z,6.20
2023-04-04T14:26:27.367Z,6.30
2023-04-04T14:28:54.518Z,6.40
2023-04-04T14:31:21.551Z,6.50
2023-04-04T14:33:48.390Z,6.60
2023-04-04T14:36:15.502Z,6.70
2023-04-04T14:38:42.179Z,6.80
2023-04-04T14:41:08.845Z,6.90
2023-04-04T14:43:35.555Z,7.00
2023-04-04T14:46:02.279Z,7.10
2023-04-04T14:48:29.029Z,7.20
2023-04-04T14:50:55.807Z,7.30
2023-04-04T14:53:22.787Z,7.40
2023-04-04T14:55:49.462Z,7.60
2023-04-04T14:58:16.561Z,7.80
2023-04-04T15:00:43.323Z,8.00
2023-04-04T15:03:09.985Z,8.10
2023-04-04T15:05:36.766Z,8.10
2023-04-04T15:08:04.186Z,8.10
2023-04-04T15:10:30.900Z,8.20
2023-04-04T15:12:57.645Z,8.30
2023-04-04T15:15:24.450Z,8.30
2023-04-04T15:17:51.519Z,8.40
2023-04-04T15:20:18.368Z,8.40
2023-04-04T15:22:45.257Z,8.50
2023-04-04T15:25:11.922Z,8.40
2023-04-04T15:27:38.674Z,8.60
2023-04-04T15:30:06.093Z,8.70
2023-04-04T15:32:32.835Z,8.80
2023-04-04T15:34:59.534Z,8.80
2023-04-04T15:37:26.524Z,9.10
2023-04-04T15:39:54.323Z,9.30
2023-04-04T15:42:21.341Z,9.30
2023-04-04T15:44:48.049Z,9.40
2023-04-04T15:47:16.238Z,9.40
2023-04-04T15:49:42.879Z,9.50
2023-04-04T15:52:09.558Z,9.40
2023-04-04T15:54:36.214Z,9.30
2023-04-04T15:57:02.935Z,9.10
2023-04-04T15:59:31.812Z,9.00
2023-04-04T16:01:58.884Z,8.90
2023-04-04T16:04:25.881Z,9.00
2023-04-04T16:06:52.609Z,9.20
2023-04-04T16:09:21.119Z,9.20
2023-04-04T16:11:47.831Z,9.20
2023-04-04T16:14:14.608Z,9.30
2023-04-04T16:16:41.601Z,9.30
2023-04-04T16:19:08.482Z,9.40
2023-04-04T16:21:35.338Z,9.40
2023-04-04T16:24:03.478Z,9.40
2023-04-04T16:26:30.508Z,9.40
2023-04-04T16:28:57.256Z,9.20
2023-04-04T16:31:24.617Z,9.10
2023-04-04T16:33:51.436Z,9.00
2023-04-04T16:36:18.203Z,8.80
2023-04-04T16:38:44.935Z,8.70
2023-04-04T16:41:11.631Z,8.60
2023-04-04T16:43:38.346Z,8.50
2023-04-04T16:46:05.693Z,8.40
2023-04-04T16:48:32.389Z,8.40
2023-04-04T16:50:59.065Z,8.40
2023-04-04T16:53:25.868Z,8.30
2023-04-04T16:55:52.594Z,8.30
2023-04-04T16:58:19.696Z,8.20
2023-04-04T17:00:46.429Z,7.90
2023-04-04T17:03:13.134Z,7.90
2023-04-04T17:05:39.828Z,7.70
2023-04-04T17:08:07.263Z,7.60
2023-04-04T17:10:34.455Z,7.60
2023-04-04T17:13:01.961Z,7.50
2023-04-04T17:15:28.651Z,7.50
2023-04-04T17:17:55.416Z,7.50
2023-04-04T17:20:22.138Z,7.50
2023-04-04T17:22:51.399Z,7.40
2023-04-04T17:25:18.551Z,7.30
2023-04-04T17:27:45.273Z,7.10
2023-04-04T17:30:12.579Z,7.00
2023-04-04T17:32:39.401Z,6.90
2023-04-04T17:35:06.876Z,6.70
2023-04-04T17:37:33.581Z,6.60
2023-04-04T17:40:03.716Z,6.60
2023-04-04T17:42:30.621Z,6.50
2023-04-04T17:44:57.501Z,6.40
2023-04-04T17:47:24.322Z,6.40
2023-04-04T17:49:53.902Z,6.30
2023-04-04T17:52:20.585Z,6.20
2023-04-04T17:54:52.441Z,6.20
2023-04-04T17:57:19.665Z,6.10
2023-04-04T17:59:47.324Z,6.10
2023-04-04T18:02:14.681Z,6.00
2023-04-04T18:04:41.329Z,6.00
2023-04-04T18:07:08.835Z,6.00
2023-04-04T18:09:35.493Z,5.90
2023-04-04T18:12:02.548Z,5.80
2023-04-04T18:14:29.278Z,5.80
2023-04-04T18:16:55.966Z,5.80
2023-04-04T18:19:22.684Z,5.70
2023-04-04T18:21:51.346Z,5.70
2023-04-04T18:24:18.051Z,5.60
2023-04-04T18:26:45.041Z,5.60
2023-04-04T18:29:14.882Z,5.60
2023-04-04T18:31:41.662Z,5.50
2023-04-04T18:34:08.540Z,5.50
2023-04-04T18:36:36.338Z,5.40
2023-04-04T18:39:03.642Z,5.40
2023-04-04T18:41:30.591Z,5.40
2023-04-04T18:43:57.292Z,5.30
2023-04-04T18:46:24.261Z,5.30
2023-04-04T18:48:51.167Z,5.20
2023-04-04T18:51:17.831Z,5.20
2023-04-04T18:53:44.595Z,5.20
2023-04-04T18:56:11.294Z,5.20
2023-04-04T18:58:38.044Z,5.10
2023-04-04T19:01:04.729Z,5.10
2023-04-04T19:03:39.720Z,5.10
2023-04-04T19:06:07.418Z,5.10
2023-04-04T19:08:38.624Z,4.90
2023-04-04T19:11:05.947Z,5.00
2023-04-04T19:13:32.895Z,4.90
2023-04-04T19:15:59.569Z,4.90
2023-04-04T19:18:26.312Z,4.80
2023-04-04T19:20:53.089Z,4.80
2023-04-04T19:23:21.116Z,4.80
2023-04-04T19:25:47.812Z,4.70
2023-04-04T19:28:14.487Z,4.70
2023-04-04T19:30:42.167Z,4.60
2023-04-04T19:33:11.272Z,4.60
2023-04-04T19:35:58.820Z,4.50
2023-04-04T19:38:31.606Z,4.50
2023-04-04T19:41:00.350Z,4.50
2023-04-04T19:43:28.239Z,4.40
2023-04-04T19:45:56.881Z,4.40
2023-04-04T19:48:50.984Z,4.40
2023-04-04T19:51:17.639Z,4.40
2023-04-04T19:54:05.852Z,4.40
2023-04-04T19:56:32.542Z,4.30
2023-04-04T19:59:02.135Z,4.30
2023-04-04T20:01:30.328Z,4.30
2023-04-04T20:03:58.122Z,4.30
2023-04-04T20:06:29.394Z,4.30
2023-04-04T20:08:59.684Z,4.30
2023-04-04T20:11:34.314Z,4.30
2023-04-04T20:14:08.217Z,4.20
2023-04-04T20:16:35.875Z,4.20
2023-04-04T20:19:06.557Z,4.20
2023-04-04T20:21:35.365Z,4.20
2023-04-04T20:24:10.298Z,4.10
2023-04-04T20:26:54.289Z,4.10
2023-04-04T20:29:24.358Z,4.10
2023-04-04T20:32:02.355Z,4.00
2023-04-04T20:34:46.232Z,4.00
2023-04-04T20:37:22.952Z,4.00
2023-04-04T20:39:54.027Z,4.00
2023-04-04T20:42:33.692Z,3.90
2023-04-04T20:45:10.154Z,3.90
2023-04-04T20:47:50.861Z,3.90
2023-04-04T20:50:17.759Z,3.80
2023-04-04T20:52:49.554Z,3.80
2023-04-04T20:55:18.425Z,3.80
2023-04-04T20:57:49.404Z,3.80
2023-04-04T21:00:25.379Z,3.80
2023-04-04T21:03:08.457Z,3.70
2023-04-04T21:05:38.556Z,3.70
2023-04-04T21:08:36.399Z,3.70
2023-04-04T21:11:03.766Z,3.70
2023-04-04T21:13:36.105Z,3.70
2023-04-04T21:16:13.572Z,3.60
2023-04-04T21:18:41.633Z,3.60
2023-04-04T21:21:17.091Z,3.60
2023-04-04T21:23:45.785Z,3.50
2023-04-04T21:26:36.443Z,3.50
2023-04-04T21:29:04.500Z,3.50
2023-04-04T21:31:37.065Z,3.40
2023-04-04T21:34:08.634Z,3.40
2023-04-04T21:36:35.398Z,3.40
2023-04-04T21:39:06.791Z,3.30
2023-04-04T21:41:34.765Z,3.30
2023-04-04T21:44:06.752Z,3.30
2023-04-04T21:46:36.043Z,3.30
2023-04-04T21:49:03.695Z,3.30
2023-04-04T21:51:30.412Z,3.30
2023-04-04T21:53:57.342Z,3.30
2023-04-04T21:56:27.351Z,3.30
2023-04-04T21:58:55.470Z,3.20
2023-04-04T22:01:22.366Z,3.20
2023-04-04T22:03:49.068Z,3.20
2023-04-04T22:06:15.974Z,3.10
2023-04-04T22:08:43.288Z,3.10
2023-04-04T22:11:13.482Z,3.10
2023-04-04T22:13:46.817Z,3.10
2023-04-04T22:16:18.235Z,3.00
2023-04-04T22:18:51.981Z,3.00
2023-04-04T22:21:25.974Z,2.90
2023-04-04T22:23:54.416Z,2.90
2023-04-04T22:26:28.915Z,2.90
2023-04-04T22:28:56.868Z,2.90
2023-04-04T22:31:23.818Z,2.90
2023-04-04T22:33:50.585Z,2.90
2023-04-04T22:36:17.536Z,2.80
2023-04-04T22:38:44.406Z,2.80
2023-04-04T22:41:11.057Z,2.80
2023-04-04T22:43:37.726Z,2.80
2023-04-04T22:46:04.492Z,2.80
2023-04-04T22:48:31.233Z,2.80
2023-04-04T22:50:58.678Z,2.80
2023-04-04T22:53:25.970Z,2.80
2023-04-04T22:55:54.098Z,2.80
2023-04-04T22:58:21.869Z,2.80
2023-04-04T23:00:48.989Z,2.80
2023-04-04T23:03:15.962Z,2.90
2023-04-04T23:05:42.832Z,2.90
2023-04-04T23:08:09.686Z,2.90
2023-04-04T23:10:36.794Z,2.90
2023-04-04T23:13:03.705Z,2.90
2023-04-04T23:15:32.291Z,2.90
2023-04-04T23:17:59.121Z,2.90
2023-04-04T23:20:25.902Z,2.90
2023-04-04T23:22:52.863Z,2.90
2023-04-04T23:25:19.716Z,2.90
2023-04-04T23:27:46.596Z,2.90
2023-04-04T23:30:13.584Z,2.80
2023-04-04T23:32:42.618Z,2.80
2023-04-04T23:35:10.516Z,2.80
2023-04-04T23:37:37.212Z,2.70
2023-04-04T23:40:05.318Z,2.70
2023-04-04T23:42:32.016Z,2.70
2023-04-04T23:45:00.937Z,2.60
2023-04-04T23:47:27.984Z,2.60
2023-04-04T23:49:54.772Z,2.60
2023-04-04T23:52:21.600Z,2.60
2023-04-04T23:54:48.369Z,2.50
2023-04-04T23:57:15.029Z,2.50
2023-04-04T23:59:41.712Z,2.50
